YFX weather

St. Lewis (Fox Harbour) Airport
St. Lewis, Newfoundland and Labrador, Canada

Public forecast

Using degrees Celsius for public forecast. Weather courtesy of forecast.io.

METAR (pilot weather report)

Closest report is Mary's Harbour Airport, 7.6 nm (14.1 km) WSW. Retrieved 2019/09/22 07:00 UTC (2 minutes ago):

CYMH 220700Z AUTO 21004KT 9SM OVC110 04/02 A2985 RMK SLP108

TAF (pilot weather forecast)

Forecast is more than 6 hours old.

Closest forecast is Mary's Harbour Airport, 7.6 nm (14.1 km) WSW. Retrieved 2019/09/21 20:00 UTC (11 hours ago):

TAF CYMH 211938Z 2120/2203 04012KT P6SM BKN040 FM220000 06005KT P6SM SCT040 RMK FCST BASED ON AUTO OBS. NXT FCST WILL BE ISSUED AT 220845Z